地図

経路データ

SID SEASON NUMBER BASIN SUBBASIN NAME ISO_TIME NATURE LAT LON WMO_WIND WMO_PRES WMO_AGENCY TRACK_TYPE DIST2LAND LANDFALL IFLAG USA_AGENCY USA_ATCF_ID USA_LAT USA_LON USA_RECORD USA_STATUS USA_WIND USA_PRES USA_SSHS USA_R34_NE USA_R34_SE USA_R34_SW USA_R34_NW USA_R50_NE USA_R50_SE USA_R50_SW USA_R50_NW USA_R64_NE USA_R64_SE USA_R64_SW USA_R64_NW USA_POCI USA_ROCI USA_RMW USA_EYE TOKYO_LAT TOKYO_LON TOKYO_GRADE TOKYO_WIND TOKYO_PRES TOKYO_R50_DIR TOKYO_R50_LONG TOKYO_R50_SHORT TOKYO_R30_DIR TOKYO_R30_LONG TOKYO_R30_SHORT TOKYO_LAND CMA_LAT CMA_LON CMA_CAT CMA_WIND CMA_PRES HKO_LAT HKO_LON HKO_CAT HKO_WIND HKO_PRES NEWDELHI_LAT NEWDELHI_LON NEWDELHI_GRADE NEWDELHI_WIND NEWDELHI_PRES NEWDELHI_CI NEWDELHI_DP NEWDELHI_POCI REUNION_LAT REUNION_LON REUNION_TYPE REUNION_WIND REUNION_PRES REUNION_TNUM REUNION_CI REUNION_RMW REUNION_R34_NE REUNION_R34_SE REUNION_R34_SW REUNION_R34_NW REUNION_R50_NE REUNION_R50_SE REUNION_R50_SW REUNION_R50_NW REUNION_R64_NE REUNION_R64_SE REUNION_R64_SW REUNION_R64_NW BOM_LAT BOM_LON BOM_TYPE BOM_WIND BOM_PRES BOM_TNUM BOM_CI BOM_RMW BOM_R34_NE BOM_R34_SE BOM_R34_SW BOM_R34_NW BOM_R50_NE BOM_R50_SE BOM_R50_SW BOM_R50_NW BOM_R64_NE BOM_R64_SE BOM_R64_SW BOM_R64_NW BOM_ROCI BOM_POCI BOM_EYE BOM_POS_METHOD BOM_PRES_METHOD NADI_LAT NADI_LON NADI_CAT NADI_WIND NADI_PRES WELLINGTON_LAT WELLINGTON_LON WELLINGTON_WIND WELLINGTON_PRES DS824_LAT DS824_LON DS824_STAGE DS824_WIND DS824_PRES TD9636_LAT TD9636_LON TD9636_STAGE TD9636_WIND TD9636_PRES TD9635_LAT TD9635_LON TD9635_WIND TD9635_PRES TD9635_ROCI NEUMANN_LAT NEUMANN_LON NEUMANN_CLASS NEUMANN_WIND NEUMANN_PRES MLC_LAT MLC_LON MLC_CLASS MLC_WIND MLC_PRES USA_GUST BOM_GUST BOM_GUST_PER REUNION_GUST REUNION_GUST_PER USA_SEAHGT USA_SEARAD_NE USA_SEARAD_SE USA_SEARAD_SW USA_SEARAD_NW STORM_SPEED STORM_DIR
2022263N10313 2022 57 NA NA IAN 2022-09-19 12:00:00 NR 9.90000 -46.6000 PROVISIONAL 814 770 O_____________ nhc_working_bt AL092022 9.90000 -46.6000 DB 20 1012 -3 16 280
2022263N10313 2022 57 NA NA IAN 2022-09-19 15:00:00 NR 10.0380 -47.4121 PROVISIONAL 770 732 P_____________ AL092022 10.0380 -47.4121 DB 17 1012 -3 16 277
2022263N10313 2022 57 NA NA IAN 2022-09-19 18:00:00 NR 10.1000 -48.2000 PROVISIONAL 732 683 O_____________ nhc_working_bt AL092022 10.1000 -48.2000 DB 15 1012 -3 15 270
2022263N10313 2022 57 NA NA IAN 2022-09-19 21:00:00 NR 10.0495 -48.9629 PROVISIONAL 668 620 P_____________ AL092022 10.0495 -48.9629 DB 17 1012 -3 16 266
2022263N10313 2022 57 NA NA IAN 2022-09-20 00:00:00 NR 10.0000 -49.8000 PROVISIONAL 620 585 O_____________ nhc_working_bt AL092022 10.0000 -49.8000 DB 20 1012 -3 18 272
2022263N10313 2022 57 NA NA IAN 2022-09-20 03:00:00 NR 10.1067 -50.7372 PROVISIONAL 585 549 P_____________ AL092022 10.1067 -50.7372 DB 22 1012 -3 21 276
2022263N10313 2022 57 NA NA IAN 2022-09-20 06:00:00 NR 10.2000 -51.9000 PROVISIONAL 544 478 O_____________ nhc_working_bt AL092022 10.2000 -51.9000 DB 25 1012 -3 28 270
2022263N10313 2022 57 NA NA IAN 2022-09-20 09:00:00 NR 10.1094 -53.5330 PROVISIONAL 476 459 P_____________ AL092022 10.1094 -53.5330 DB 27 1011 -3 31 266
2022263N10313 2022 57 NA NA IAN 2022-09-20 12:00:00 NR 10.0000 -55.0000 PROVISIONAL 459 426 O_____________ nhc_working_bt AL092022 10.0000 -55.0000 DB 30 1010 -3 1012 150 90 21 268
2022263N10313 2022 57 NA NA IAN 2022-09-20 15:00:00 NR 10.0263 -55.6871 PROVISIONAL 426 405 P_____________ AL092022 10.0263 -55.6871 DB 30 1009 -3 1011 150 90 10 276
2022263N10313 2022 57 NA NA IAN 2022-09-20 18:00:00 NR 10.1000 -56.0000 PROVISIONAL 405 385 O_____________ nhc_working_bt AL092022 10.1000 -56.0000 DB 30 1009 -3 1010 150 90 40 6 283
2022263N10313 2022 57 NA NA IAN 2022-09-20 21:00:00 NR 10.1572 -56.2850 PROVISIONAL 385 360 P_____________ AL092022 10.1572 -56.2850 DB 30 1009 -3 1010 150 90 6 280
2022263N10313 2022 57 NA NA IAN 2022-09-21 00:00:00 NR 10.2000 -56.6000 PROVISIONAL 360 322 O_____________ nhc_working_bt AL092022 10.2000 -56.6000 DB 30 1009 -3 1011 150 90 40 8 272
2022263N10313 2022 57 NA NA IAN 2022-09-21 03:00:00 NR 10.1849 -57.1177 PROVISIONAL 322 279 P_____________ AL092022 10.1849 -57.1177 DB 30 1009 -3 1011 150 90 12 270
2022263N10313 2022 57 NA NA IAN 2022-09-21 06:00:00 NR 10.2000 -57.8000 PROVISIONAL 279 254 O_____________ nhc_working_bt AL092022 10.2000 -57.8000 DB 30 1009 -3 1011 150 90 15 275
2022263N10313 2022 57 NA NA IAN 2022-09-21 09:00:00 NR 10.3199 -58.5975 PROVISIONAL 249 175 P_____________ AL092022 10.3199 -58.5975 DB 30 1008 -3 1010 150 90 17 280
2022263N10313 2022 57 NA NA IAN 2022-09-21 12:00:00 NR 10.5000 -59.5000 PROVISIONAL 164 65 O_____________ nhc_working_bt AL092022 10.5000 -59.5000 DB 30 1007 -3 1010 150 90 40 19 282
2022263N10313 2022 57 NA NA IAN 2022-09-21 15:00:00 NR 10.7002 -60.4724 PROVISIONAL 54 11 P_____________ AL092022 10.7002 -60.4724 DB 30 1007 -3 1010 150 90 19 282
2022263N10313 2022 57 NA CS IAN 2022-09-21 18:00:00 NR 10.9000 -61.4000 PROVISIONAL 22 22 O_____________ nhc_working_bt AL092022 10.9000 -61.4000 DB 30 1007 -3 1010 150 90 40 17 283
2022263N10313 2022 57 NA CS IAN 2022-09-21 21:00:00 NR 11.0721 -62.1450 PROVISIONAL 46 44 P_____________ AL092022 11.0721 -62.1450 DB 30 1007 -3 1010 150 90 14 282
2022263N10313 2022 57 NA CS IAN 2022-09-22 00:00:00 NR 11.2000 -62.8000 PROVISIONAL 56 56 O_____________ nhc_working_bt AL092022 11.2000 -62.8000 DB 30 1007 -3 1010 150 90 40 13 277
2022263N10313 2022 57 NA CS IAN 2022-09-22 03:00:00 NR 11.2424 -63.4802 PROVISIONAL 67 67 P_____________ AL092022 11.2424 -63.4802 DB 30 1007 -3 1010 150 90 13 274
2022263N10313 2022 57 NA CS IAN 2022-09-22 06:00:00 NR 11.3000 -64.1000 PROVISIONAL 78 78 O_____________ nhc_working_bt AL092022 11.3000 -64.1000 DB 30 1007 -3 1010 150 90 40 11 281
2022263N10313 2022 57 NA CS IAN 2022-09-22 09:00:00 NR 11.4622 -64.6076 PROVISIONAL 109 109 P_____________ AL092022 11.4622 -64.6076 DB 30 1007 -3 1010 150 90 11 292
2022263N10313 2022 57 NA CS IAN 2022-09-22 12:00:00 NR 11.7000 -65.1000 PROVISIONAL 157 149 O_____________ nhc_working_bt AL092022 11.7000 -65.1000 DB 30 1007 -3 1010 150 90 40 12 296
2022263N10313 2022 57 NA CS IAN 2022-09-22 15:00:00 NR 11.9851 -65.7074 PROVISIONAL 160 158 P_____________ AL092022 11.9851 -65.7074 DB 30 1006 -3 1010 150 80 13 297
2022263N10313 2022 57 NA CS IAN 2022-09-22 18:00:00 DS 12.3000 -66.3000 PROVISIONAL 190 190 O_____________ nhc_working_bt AL092022 12.3000 -66.3000 LO 30 1006 -3 1010 150 70 40 12 300
2022263N10313 2022 57 NA CS IAN 2022-09-22 21:00:00 DS 12.5848 -66.7728 PROVISIONAL 223 223 P_____________ AL092022 12.5848 -66.7728 LO 30 1006 -3 1010 150 70 11 304
2022263N10313 2022 57 NA CS IAN 2022-09-23 00:00:00 DS 12.9000 -67.2000 PROVISIONAL 230 230 O_____________ nhc_working_bt AL092022 12.9000 -67.2000 LO 30 1006 -3 1010 150 70 40 11 312
2022263N10313 2022 57 NA CS IAN 2022-09-23 03:00:00 DS 13.3147 -67.6125 PROVISIONAL 248 248 P_____________ AL092022 13.3147 -67.6125 LO 30 1006 -3 1010 150 65 12 312
2022263N10313 2022 57 NA CS IAN 2022-09-23 06:00:00 TS 13.7000 -68.1000 PROVISIONAL 264 239 O_____________ nhc_working_bt AL092022 13.7000 -68.1000 TD 30 1006 -1 1010 150 60 40 13 298
2022263N10313 2022 57 NA CS IAN 2022-09-23 09:00:00 TS 13.9027 -68.7614 PROVISIONAL 234 222 P_____________ AL092022 13.9228 -68.7852 TD 30 1006 -1 1010 140 60 14 287
2022263N10313 2022 57 NA CS IAN 2022-09-23 12:00:00 TS 14.1000 -69.4400 PROVISIONAL 230 226 O_____________ nhc_working_bt AL092022 14.1000 -69.5000 TD 30 1006 -1 1010 130 60 40 14 290
2022263N10313 2022 57 NA CS IAN 2022-09-23 15:00:00 TS 14.3650 -70.0848 PROVISIONAL 257 257 P_____________ AL092022 14.3648 -70.0799 TD 30 1006 -1 1010 130 60 13 293
2022263N10313 2022 57 NA CS IAN 2022-09-23 18:00:00 TS 14.6000 -70.6667 PROVISIONAL 261 257 O_____________ nhc_working_bt AL092022 14.6000 -70.6000 TD 30 1006 -1 1010 130 60 40 11 291
2022263N10313 2022 57 NA CS IAN 2022-09-23 21:00:00 TS 14.7446 -71.0976 PROVISIONAL 261 261 P_____________ AL092022 14.7447 -71.0926 TD 32 1005 -1 1010 135 45 9 283
2022263N10313 2022 57 NA CS IAN 2022-09-24 00:00:00 TS 14.8000 -71.5333 PROVISIONAL 268 268 O_____________ nhc_working_bt AL092022 14.8000 -71.6000 TS 35 1005 0 30 1010 140 30 45 10 273
2022263N10313 2022 57 NA CS IAN 2022-09-24 03:00:00 TS 14.7872 -72.1042 PROVISIONAL 272 271 P_____________ AL092022 14.7871 -72.1475 TS 35 1005 0 30 1010 150 30 12 265
2022263N10313 2022 57 NA CS IAN 2022-09-24 06:00:00 TS 14.7000 -72.8000 PROVISIONAL 282 282 O_____________ nhc_working_bt AL092022 14.7000 -72.8000 TS 35 1005 0 30 1010 160 30 45 15 261
2022263N10313 2022 57 NA CS IAN 2022-09-24 09:00:00 TS 14.5525 -73.6178 PROVISIONAL 308 304 P_____________ AL092022 14.5426 -73.6129 TS 37 1004 0 40 1010 160 30 17 260
2022263N10313 2022 57 NA CS IAN 2022-09-24 12:00:00 TS 14.4000 -74.5000 PROVISIONAL 350 350 O_____________ nhc_working_bt AL092022 14.4000 -74.5000 TS 40 1003 0 50 1010 160 30 50 18 261
2022263N10313 2022 57 NA CS IAN 2022-09-24 15:00:00 TS 14.2860 -75.4026 PROVISIONAL 370 370 P_____________ AL092022 14.3627 -75.4023 TS 40 1003 0 50 1010 160 30 17 265
2022263N10313 2022 57 NA CS IAN 2022-09-24 18:00:00 TS 14.2667 -76.2000 PROVISIONAL 395 373 O_____________ nhc_working_bt AL092022 14.4000 -76.2000 TS 40 1003 0 50 1010 160 30 50 13 276
2022263N10313 2022 57 NA CS IAN 2022-09-24 21:00:00 TS 14.4228 -76.7447 PROVISIONAL 373 346 P_____________ AL092022 14.4994 -76.7448 TS 42 1002 0 50 1009 175 30 10 289
2022263N10313 2022 57 NA CS IAN 2022-09-25 00:00:00 TS 14.6000 -77.2000 PROVISIONAL 346 346 O_____________ nhc_working_bt AL092022 14.6000 -77.2000 TS 45 1002 0 40 50 1009 190 30 55 10 280
2022263N10313 2022 57 NA CS IAN 2022-09-25 03:00:00 TS 14.5949 -77.7429 PROVISIONAL 351 351 P_____________ AL092022 14.5849 -77.7428 TS 45 1002 0 40 50 1008 185 30 11 270
2022263N10313 2022 57 NA CS IAN 2022-09-25 06:00:00 TS 14.6000 -78.3000 PROVISIONAL 366 366 O_____________ nhc_working_bt AL092022 14.6000 -78.3000 TS 45 1003 0 40 50 1008 180 30 55 12 30 11 278
2022263N10313 2022 57 NA CS IAN 2022-09-25 09:00:00 TS 14.7476 -78.8874 PROVISIONAL 380 366 P_____________ AL092022 14.7476 -78.8874 TS 42 1003 0 40 50 1008 180 30 12 30 11 291
2022263N10313 2022 57 NA CS IAN 2022-09-25 12:00:00 TS 15.0000 -79.4000 PROVISIONAL 371 352 O_____________ nhc_working_bt AL092022 15.0000 -79.4000 TS 40 1003 0 40 50 1008 180 30 55 12 30 30 10 304
2022263N10313 2022 57 NA CS IAN 2022-09-25 15:00:00 TS 15.2897 -79.7155 PROVISIONAL 352 327 P_____________ AL092022 15.2897 -79.7155 TS 40 1003 0 35 1008 180 30 12 30 37 9 320
2022263N10313 2022 57 NA CS IAN 2022-09-25 18:00:00 TS 15.7000 -80.0000 PROVISIONAL 327 300 O_____________ nhc_working_bt AL092022 15.7000 -80.0000 TS 40 1003 0 30 1008 180 30 50 12 30 45 12 325
2022263N10313 2022 57 NA CS IAN 2022-09-25 21:00:00 TS 16.2926 -80.4346 PROVISIONAL 300 294 P_____________ AL092022 16.2926 -80.4346 TS 45 997 0 45 1007 150 30 12 30 15 324
2022263N10313 2022 57 NA CS IAN 2022-09-26 00:00:00 TS 16.9000 -80.9000 PROVISIONAL 302 297 O_____________ nhc_working_bt AL092022 16.9000 -80.9000 TS 50 991 0 60 60 30 30 1007 120 30 60 12 30 13 320
2022263N10313 2022 57 NA CS IAN 2022-09-26 03:00:00 TS 17.3149 -81.3155 PROVISIONAL 316 312 P_____________ AL092022 17.3149 -81.3155 TS 57 988 0 65 65 50 30 1007 135 22 12 37 11 316
2022263N10313 2022 57 NA CS IAN 2022-09-26 06:00:00 TS 17.7000 -81.7000 PROVISIONAL 324 324 O_____________ nhc_working_bt AL092022 17.7000 -81.7000 HU 65 985 1 70 70 30 70 30 30 20 15 1007 150 15 80 12 45 30 30 30 11 321
2022263N10313 2022 57 NA CS IAN 2022-09-26 09:00:00 TS 18.1849 -82.0651 PROVISIONAL 352 304 P_____________ AL092022 18.1849 -82.0651 HU 67 983 1 80 75 35 80 35 35 25 17 1007 150 15 12 52 30 30 45 12 326
2022263N10313 2022 57 NA CS IAN 2022-09-26 12:00:00 TS 18.7000 -82.4000 PROVISIONAL 304 246 O_____________ nhc_working_bt AL092022 18.7000 -82.4000 HU 70 981 1 90 80 40 90 40 40 30 20 1008 150 15 85 12 60 30 30 60 12 328
2022263N10313 2022 57 NA CS IAN 2022-09-26 15:00:00 TS 19.1925 -82.7301 PROVISIONAL 246 191 P_____________ AL092022 19.1925 -82.7301 HU 75 978 1 95 85 50 90 45 45 30 25 1008 150 17 12 90 45 30 67 12 330
2022263N10313 2022 57 NA CS IAN 2022-09-26 18:00:00 TS 19.7000 -83.0000 PROVISIONAL 191 137 O_____________ nhc_working_bt AL092022 19.7000 -83.0000 HU 80 976 1 100 90 60 90 50 50 20 30 30 25 20 1008 150 20 100 12 120 60 30 75 11 339
2022263N10313 2022 57 NA CS IAN 2022-09-26 21:00:00 TS 20.2499 -83.1728 PROVISIONAL 140 84 P_____________ AL092022 20.2499 -83.1728 HU 82 970 1 100 90 60 90 50 50 20 30 30 25 20 1007 140 20 12 135 90 45 82 11 346
2022263N10313 2022 57 NA CS IAN 2022-09-27 00:00:00 TS 20.8000 -83.3000 PROVISIONAL 84 47 O_____________ nhc_working_bt AL092022 20.8000 -83.3000 HU 85 965 2 100 90 60 90 50 50 20 30 30 25 20 1006 130 20 105 12 150 120 60 90 11 346
2022263N10313 2022 57 NA CS IAN 2022-09-27 03:00:00 TS 21.3187 -83.4671 PROVISIONAL 56 42 P_____________ AL092022 21.3110 -83.4566 HU 92 960 2 100 95 65 90 50 50 25 35 30 25 20 1007 165 17 12 165 120 67 105 10 344
2022263N10313 2022 57 NA CS IAN 2022-09-27 06:00:00 TS 21.8000 -83.6000 PROVISIONAL 42 0 O_____________ nhc_working_bt AL092022 21.8000 -83.6000 HU 100 956 3 100 100 70 90 50 50 30 40 30 25 20 20 1008 200 15 120 12 180 120 75 120 9 348
2022263N10313 2022 57 NA CS IAN 2022-09-27 08:30:00 TS 22.1617 -83.6625 PROVISIONAL 0 0 V_____________ nhc_working_bt AL092022 22.2000 -83.7000 HU 110 947 3 100 100 70 90 50 50 30 40 30 25 20 20 1008 200 15 12 167 132 81 107 9 353
2022263N10313 2022 57 NA CS IAN 2022-09-27 09:00:00 TS 22.2267 -83.6639 PROVISIONAL 0 0 P_____________ AL092022 22.2653 -83.7017 HU 108 949 3 102 102 74 94 51 51 32 42 30 25 20 20 1008 209 15 12 165 135 82 105 8 8
2022263N10313 2022 57 NA NA IAN 2022-09-27 12:00:00 TS 22.6000 -83.6000 PROVISIONAL 0 0 O_____________ nhc_working_bt AL092022 22.6000 -83.6000 HU 100 963 3 120 120 100 120 60 60 50 60 30 25 20 20 1009 270 15 135 12 150 150 90 90 8 13
2022263N10313 2022 57 NA GM IAN 2022-09-27 15:00:00 TS 23.0381 -83.4692 PROVISIONAL 15 15 P_____________ AL092022 23.0294 -83.4624 HU 102 957 3 120 120 100 120 60 60 50 60 32 30 20 20 1009 270 15 12 112 165 75 90 9 17
2022263N10313 2022 57 NA GM IAN 2022-09-27 18:00:00 TS 23.5000 -83.3000 PROVISIONAL 67 67 O_____________ nhc_working_bt AL092022 23.5000 -83.3000 HU 105 951 3 120 120 100 120 60 60 50 60 35 35 20 20 1009 270 15 130 12 75 180 60 90 10 18
2022263N10313 2022 57 NA GM IAN 2022-09-27 21:00:00 TS 23.9575 -83.1351 PROVISIONAL 115 115 P_____________ AL092022 23.9575 -83.1351 HU 105 949 3 120 120 100 120 60 60 50 60 35 35 20 20 1008 225 17 12 82 120 120 90 9 17
2022263N10313 2022 57 NA GM IAN 2022-09-28 00:00:00 TS 24.4000 -83.0000 PROVISIONAL 153 153 O_____________ nhc_working_bt AL092022 24.4000 -83.0000 HU 105 947 3 120 120 100 120 60 60 50 60 35 35 20 20 1008 180 20 130 12 90 60 180 90 9 12
2022263N10313 2022 57 NA GM IAN 2022-09-28 03:00:00 TS 24.8075 -82.9422 PROVISIONAL 172 143 P_____________ AL092022 24.8075 -82.9422 HU 112 946 3 120 125 100 135 65 60 55 65 35 35 25 27 1009 190 20 12 90 60 180 90 8 6
2022263N10313 2022 57 NA GM IAN 2022-09-28 06:00:00 TS 25.2000 -82.9000 PROVISIONAL 143 114 O_____________ nhc_working_bt AL092022 25.2000 -82.9000 HU 120 945 4 120 130 100 150 70 60 60 70 35 35 30 35 1010 200 20 25 130 12 90 60 180 90 8 8
2022263N10313 2022 57 NA GM IAN 2022-09-28 09:00:00 TS 25.6150 -82.8150 PROVISIONAL 114 89 P_____________ AL092022 25.6150 -82.8150 HU 127 941 4 120 135 100 150 70 60 65 75 37 37 30 37 1010 235 20 12 105 90 225 150 8 13
2022263N10313 2022 57 NA GM IAN 2022-09-28 12:00:00 TS 26.0000 -82.7000 PROVISIONAL 89 59 O_____________ nhc_working_bt AL092022 26.0000 -82.7000 HU 135 937 4 120 140 100 150 70 60 70 80 40 40 30 40 1010 270 20 165 12 120 120 270 210 7 16
2022263N10313 2022 57 NA GM IAN 2022-09-28 15:00:00 TS 26.3099 -82.5872 PROVISIONAL 59 24 P_____________ AL092022 26.3149 -82.5872 HU 135 937 4 125 145 100 150 60 60 70 80 35 40 30 42 1010 270 20 12 82 120 285 225 7 24
2022263N10313 2022 57 NA GM IAN 2022-09-28 18:00:00 TS 26.6000 -82.4000 PROVISIONAL 24 0 O_____________ nhc_working_bt AL092022 26.6000 -82.4000 HU 135 938 4 130 150 100 150 50 60 70 80 30 40 30 45 1010 270 20 165 12 45 120 300 240 8 36
2022263N10313 2022 57 NA GM IAN 2022-09-28 21:00:00 TS 26.9460 -82.0728 PROVISIONAL 0 0 P_____________ AL092022 26.9076 -82.0727 HU 117 949 4 130 150 100 150 50 60 70 80 30 40 30 45 1010 260 20 12 67 270 210 9 43
2022263N10313 2022 57 NA NA IAN 2022-09-29 00:00:00 TS 27.2667 -81.7000 PROVISIONAL 0 0 O_____________ nhc_working_bt AL092022 27.2000 -81.7000 HU 100 960 3 130 150 100 150 50 60 70 80 30 40 30 45 1010 250 20 120 12 90 240 180 8 49
2022263N10313 2022 57 NA NA IAN 2022-09-29 03:00:00 TS 27.4758 -81.3796 PROVISIONAL 0 0 P_____________ AL092022 27.4424 -81.3847 HU 80 973 1 245 135 125 175 55 55 55 75 15 20 15 22 1010 245 20 12 150 270 210 7 51
2022263N10313 2022 57 NA NA IAN 2022-09-29 06:00:00 TS 27.7000 -81.1000 PROVISIONAL 0 0 O_____________ nhc_working_bt AL092022 27.7000 -81.1000 TS 60 986 0 360 120 150 200 60 50 40 70 1010 240 20 75 12 210 300 240 8 36
2022263N10313 2022 57 NA NA IAN 2022-09-29 09:00:00 TS 28.0832 -80.8808 PROVISIONAL 0 0 P_____________ AL092022 28.0499 -80.8425 TS 60 986 0 360 120 150 200 60 50 40 70 1009 240 30 12 240 330 225 9 26
2022263N10313 2022 57 NA NA IAN 2022-09-29 12:00:00 TS 28.4667 -80.6667 PROVISIONAL 0 0 O_____________ nhc_working_bt AL092022 28.4000 -80.6000 TS 60 987 0 360 120 150 200 60 50 40 70 1009 240 40 75 12 270 60 360 210 7 35
2022263N10313 2022 57 NA NA IAN 2022-09-29 15:00:00 TS 28.6833 -80.4028 PROVISIONAL 22 22 P_____________ AL092022 28.6499 -80.3645 TS 62 986 0 360 130 150 200 90 40 85 1008 250 40 7 49
2022263N10313 2022 57 NA NA IAN 2022-09-29 18:00:00 TS 28.9000 -80.1000 PROVISIONAL 59 59 O_____________ nhc_working_bt AL092022 28.9000 -80.1000 HU 65 986 1 360 140 150 200 120 40 100 40 1008 260 40 80 8 45
2022263N10313 2022 57 NA NA IAN 2022-09-29 21:00:00 TS 29.2735 -79.7305 PROVISIONAL 115 115 P_____________ AL092022 29.2352 -79.7354 HU 67 986 1 360 140 150 200 120 40 100 40 1008 260 40 10 38
2022263N10313 2022 57 NA NA IAN 2022-09-30 00:00:00 TS 29.6667 -79.4000 PROVISIONAL 159 159 O_____________ nhc_working_bt AL092022 29.6000 -79.4000 HU 70 986 1 360 140 150 200 120 40 100 40 1008 260 40 85 12 270 120 60 90 8 36
2022263N10313 2022 57 NA NA IAN 2022-09-30 03:00:00 TS 29.9124 -79.2046 PROVISIONAL 186 186 P_____________ AL092022 29.9124 -79.2047 HU 72 985 1 390 135 125 180 100 60 110 50 1007 220 40 12 285 135 75 105 6 25
2022263N10313 2022 57 NA NA IAN 2022-09-30 06:00:00 TS 30.2333 -79.1000 PROVISIONAL 212 212 O_____________ nhc_working_bt AL092022 30.3000 -79.1000 HU 75 984 1 420 130 100 160 80 60 80 120 40 60 1007 180 40 90 12 300 150 90 120 9 11
2022263N10313 2022 57 NA NA IAN 2022-09-30 09:00:00 TS 30.7742 -79.0129 PROVISIONAL 217 154 P_____________ AL092022 30.8175 -79.0128 HU 75 982 1 330 130 110 150 80 60 80 100 40 60 1007 195 40 12 300 165 105 135 13 4
2022263N10313 2022 57 NA NA IAN 2022-09-30 12:00:00 TS 31.5000 -79.0000 PROVISIONAL 154 82 O_____________ nhc_working_bt AL092022 31.5000 -79.0000 HU 75 980 1 240 130 120 140 80 60 80 80 40 40 60 1008 210 40 90 12 300 180 120 150 16 358
2022263N10313 2022 57 NA NA IAN 2022-09-30 15:00:00 TS 32.3975 -79.0794 PROVISIONAL 72 0 P_____________ AL092022 32.4075 -79.0842 HU 75 978 1 215 130 110 100 80 60 80 60 40 1007 210 40 12 300 225 150 105 18 355
2022263N10313 2022 57 NA NA IAN 2022-09-30 18:00:00 TS 33.3000 -79.2000 PROVISIONAL 0 0 O_____________ nhc_working_bt AL092022 33.3000 -79.2000 HU 75 977 1 190 130 100 60 80 60 80 40 30 40 1007 210 40 90 12 300 270 180 60 16 354
2022263N10313 2022 57 NA NA IAN 2022-09-30 21:00:00 TS 34.0324 -79.2737 PROVISIONAL 0 0 P_____________ AL092022 33.9174 -79.2357 HU 62 983 0 175 145 50 70 1007 210 60 12 295 275 190 13 354
2022263N10313 2022 57 NA NA IAN 2022-10-01 00:00:00 ET 34.6000 -79.3667 PROVISIONAL 0 0 O_____________ nhc_working_bt AL092022 34.4000 -79.3000 EX 50 990 -4 160 160 40 80 1007 210 80 60 12 290 280 200 10 348
2022263N10313 2022 57 NA NA IAN 2022-10-01 03:00:00 ET 35.0000 -79.5209 PROVISIONAL 0 0 P_____________ AL092022 34.8951 -79.4920 EX 32 997 -4 1008 305 140 8 339
2022263N10313 2022 57 NA NA IAN 2022-10-01 06:00:00 ET 35.3000 -79.7000 PROVISIONAL 0 0 O_____________ nhc_working_bt AL092022 35.3000 -79.7000 EX 15 1005 -4 1010 400 200 40 7 330
2022263N10313 2022 57 NA NA IAN 2022-10-01 09:00:00 ET 35.6116 -79.9531 PROVISIONAL 0 0 P_____________ AL092022 35.5498 -79.8820 EX 17 1005 -4 1010 402 300 7 337
2022263N10313 2022 57 NA NA IAN 2022-10-01 12:00:00 ET 35.9333 -80.0333 PROVISIONAL 0 0 O_____________ nhc_working_bt AL092022 35.8000 -79.9000 EX 20 1005 -4 1010 405 400 30 7 16
2022263N10313 2022 57 NA NA IAN 2022-10-01 15:00:00 ET 36.3196 -79.6953 PROVISIONAL 0 0 P_____________ AL092022 36.2427 -79.6186 EX 20 1006 -4 1009 232 227 10 41
2022263N10313 2022 57 NA NA IAN 2022-10-01 18:00:00 ET 36.7000 -79.2000 PROVISIONAL 0 0 O_____________ nhc_working_bt AL092022 36.7000 -79.2000 EX 20 1008 -4 1009 60 55 30 10 45
2022263N10313 2022 57 NA NA IAN 2022-10-01 21:00:00 ET 37.0197 -78.8071 PROVISIONAL 0 0 P_____________ AL092022 37.0399 -78.8271 EX 17 1008 -4 1009 52 47 8 43
2022263N10313 2022 57 NA NA IAN 2022-10-02 00:00:00 ET 37.3000 -78.5000 PROVISIONAL 0 O_____________ nhc_working_bt AL092022 37.3000 -78.5000 EX 15 1009 -4 1010 45 40 20 7 41

IBTrACS Databaseについて

本データベースは、米国NOAAが公開する1842年以降の世界の熱帯低気圧のベストトラックデータアーカイブInternational Best Track Archive for Climate Stewardship (IBTrACS)を、ウェブで閲覧しやすい形式に変換したものです。

最終更新日:2022-11-16